Latest Weather Observations for Lord Howe Island

IDN60801

Issued at 8:12 pm EST Tuesday 19 June 2018 (issued every 10 minutes, with the page automatically refreshed every 10 minutes)

About weather observations | Map of weather stations | Latest weather observations for NSW | Other Formats
Station Details ID: 200839 Name: LORD HOWE ISLAND AERO Lat: -31.54 Lon: 159.08 Height: 5.0 m
Data from the previous 72 hours. | See also: Recent months at Lord Howe Island
Date/Time
EST
Temp
°C
App
Temp
°C
Dew
Point
°C
Rel
Hum
%
Delta-T
°C
Wind Press
QNH
hPa
Press
MSL
hPa
Rain since
9am
mm
Dir  Spd
km/h
Gust
km/h
Spd
kts
Gust
kts
19/08:00pm 15.9 14.4 8.4 61 3.8 S 6 11 3 6 1012.3 - 0.0
19/07:30pm 15.8 13.8 8.8 63 3.6 SSW 9 20 5 11 1012.1 - 0.0
19/07:00pm 15.9 14.2 8.4 61 3.8 S 7 13 4 7 1012.2 - 0.0
19/06:30pm 15.7 13.8 8.9 64 3.5 SSW 9 15 5 8 1012.0 - 0.0
19/06:00pm 15.5 14.0 8.5 63 3.5 S 6 15 3 8 1011.9 - 0.0
19/05:30pm 15.4 13.8 8.9 65 3.3 SSE 7 13 4 7 1011.6 1011.6 0.0
19/05:00pm 15.7 13.8 8.9 64 3.5 SE 9 13 5 7 1011.3 - 0.0
19/04:30pm 15.6 14.1 8.6 63 3.6 ESE 6 13 3 7 1011.2 - 0.0
19/04:00pm 15.9 14.1 9.6 66 3.3 SSE 9 22 5 12 1010.9 - 0.0
19/03:30pm 16.7 14.3 8.7 59 4.1 S 11 19 6 10 1010.6 - 0.0
19/03:00pm 17.7 14.1 9.8 60 4.2 SSW 19 32 10 17 1010.2 - 0.0
19/02:30pm 17.8 14.2 9.7 59 4.3 SSW 19 30 10 16 1010.3 1010.3 0.0
19/02:00pm 17.6 14.3 8.2 54 4.8 SW 15 24 8 13 1010.3 - 0.0
19/01:30pm 18.0 14.6 9.1 56 4.6 SW 17 26 9 14 1010.2 - 0.0
19/01:00pm 18.1 14.6 8.7 54 4.9 SW 17 28 9 15 1010.1 - 0.0
19/12:30pm 18.3 15.3 9.1 55 4.8 SW 15 28 8 15 1010.2 - 0.0
19/12:00pm 18.3 14.9 9.1 55 4.8 SW 17 26 9 14 1010.5 - 0.0
19/11:30am 17.9 14.8 8.7 55 4.8 SW 15 30 8 16 1010.7 1010.7 0.0
19/11:00am 17.8 14.3 8.6 55 4.7 SSW 17 28 9 15 1011.0 - 0.0
19/10:30am 18.0 15.0 9.1 56 4.6 SW 15 24 8 13 1011.2 - 0.0
19/10:00am 17.9 15.0 9.8 59 4.3 SSW 15 24 8 13 1011.2 - 0.0
19/09:30am 17.9 15.7 9.5 58 4.4 SSW 11 22 6 12 1011.0 - 0.0
19/09:00am 17.4 14.5 9.6 60 4.1 SSW 15 24 8 13 1010.9 - 0.0
19/08:30am 16.4 14.3 9.8 65 3.5 SSW 11 19 6 10 1010.6 1010.6 1.2
19/08:00am 15.5 13.9 10.3 71 2.7 S 9 17 5 9 1010.4 - 1.2
19/07:35am 14.5 13.2 10.1 75 2.3 SSW 7 13 4 7 1010.3 - 1.2
19/07:30am 14.7 13.1 10.3 75 2.3 S 9 20 5 11 1010.3 - 1.2
19/07:20am 14.6 11.4 9.8 73 2.5 SW 17 26 9 14 1010.3 - 1.2
19/07:00am 15.4 13.5 9.1 66 3.2 S 9 17 5 9 1010.0 - 0.8
19/06:30am 15.3 13.4 9.0 66 3.2 S 9 13 5 7 1009.7 - 0.8
19/06:00am 15.1 13.2 9.2 68 3.0 S 9 13 5 7 1009.5 - 0.8
19/05:30am 15.2 13.1 9.6 69 2.9 SSW 11 20 6 11 1009.3 1009.3 0.8
19/05:00am 14.1 12.5 8.7 70 2.7 SSW 7 15 4 8 1009.2 - 0.8
19/04:30am 15.0 12.7 9.1 68 3.0 SSW 11 20 6 11 1009.0 - 0.8
19/04:00am 15.6 13.0 9.5 67 3.2 SW 13 20 7 11 1008.8 - 0.8
19/03:30am 15.7 13.0 8.9 64 3.5 SSW 13 20 7 11 1009.0 - 0.8
19/03:00am 15.4 13.1 9.1 66 3.2 SSW 11 20 6 11 1008.9 - 0.8
19/02:30am 14.2 12.1 8.2 67 3.0 SSW 9 15 5 8 1008.7 1008.7 0.8
19/02:00am 14.6 12.8 7.9 64 3.3 S 7 13 4 7 1008.7 - 0.8
19/01:30am 15.5 11.6 8.7 64 3.5 SW 19 24 10 13 1008.6 - 0.8
19/01:00am 15.5 12.1 10.7 73 2.5 SW 19 32 10 17 1008.7 - 0.8
19/12:30am 15.9 12.5 9.1 64 3.5 SW 17 22 9 12 1008.7 - 0.8
19/12:00am 15.6 11.1 9.9 69 3.0 WSW 24 33 13 18 1008.9 - 0.6
 
Date/Time
EST
Temp
°C
App
Temp
°C
Dew
Point
°C
Rel
Hum
%
Delta-T
°C
Wind Press
QNH
hPa
Press
MSL
hPa
Rain since
9am
mm
Dir  Spd
km/h
Gust
km/h
Spd
kts
Gust
kts
18/11:30pm 15.3 9.7 10.3 72 2.6 W 30 41 16 22 1009.2 1009.2 0.6
18/11:00pm 15.7 12.1 9.8 68 3.1 SW 19 28 10 15 1009.0 - 0.6
18/10:30pm 15.5 12.3 10.1 70 2.8 SW 17 24 9 13 1009.0 - 0.6
18/10:00pm 15.4 12.7 10.2 71 2.7 SW 15 26 8 14 1008.9 - 0.6
18/09:30pm 15.3 11.8 10.9 75 2.3 SW 20 28 11 15 1009.0 - 0.6
18/09:00pm 14.4 10.6 9.8 74 2.4 W 20 30 11 16 1009.2 - 0.6
18/08:30pm 15.1 11.4 10.1 72 2.6 SW 20 30 11 16 1009.4 1009.4 0.4
18/08:28pm 14.7 11.2 10.1 74 2.4 SW 19 26 10 14 1009.4 - 0.4
18/08:15pm 14.4 8.4 10.0 75 2.3 WSW 32 44 17 24 1009.3 - 0.2
18/08:00pm 15.6 11.0 9.5 67 3.2 WSW 24 35 13 19 1009.3 - 0.0
18/07:30pm 15.5 10.1 9.6 68 3.1 W 28 35 15 19 1009.4 - 0.0
18/07:00pm 15.1 9.1 8.6 65 3.3 W 30 39 16 21 1009.5 - 0.0
18/06:30pm 15.4 8.2 9.3 67 3.1 WSW 37 48 20 26 1009.4 - 0.0
18/06:09pm 15.8 7.9 9.5 66 3.3 W 41 61 22 33 1009.1 - 0.0
18/06:00pm 15.8 8.8 9.9 68 3.1 WSW 37 48 20 26 1008.9 - 0.0
18/05:30pm 15.8 8.9 8.8 63 3.6 W 35 46 19 25 1008.6 1008.6 0.0
18/05:01pm 15.6 8.5 9.7 68 3.1 W 37 56 20 30 1008.8 - 0.0
18/05:00pm 15.5 8.0 9.4 67 3.1 W 39 56 21 30 1008.8 - 0.0
18/04:30pm 16.4 9.5 8.9 61 3.9 W 35 44 19 24 1008.6 - 0.0
18/04:00pm 16.0 10.1 7.7 58 4.2 W 28 43 15 23 1008.8 - 0.0
18/03:30pm 16.2 9.8 8.4 60 4.0 W 32 41 17 22 1009.1 - 0.0
18/03:00pm 15.6 8.1 7.9 60 3.9 W 37 46 20 25 1008.9 - 0.0
18/02:30pm 15.3 7.7 7.6 60 3.8 WSW 37 48 20 26 1008.7 1008.7 0.0
18/02:17pm 15.3 7.9 9.9 70 2.8 WSW 39 46 21 25 1008.8 - 0.0
18/01:58pm 15.2 4.4 9.8 70 2.8 W 57 76 31 41 1009.1 - 0.0
18/01:48pm 15.8 4.1 9.5 66 3.3 W 61 72 33 39 1008.8 - 0.0
18/01:44pm 16.2 10.1 9.6 65 3.4 WSW 32 61 17 33 1009.1 - 0.0
18/01:30pm 16.3 10.0 9.0 62 3.8 WSW 32 43 17 23 1008.8 - 0.0
18/01:07pm 16.6 10.3 9.1 61 3.9 SW 32 54 17 29 1009.0 - 0.0
18/01:00pm 16.6 10.8 9.5 63 3.7 WSW 30 46 16 25 1009.0 - 0.0
18/12:46pm 16.5 11.3 10.4 67 3.2 SW 28 48 15 26 1009.0 - 0.0
18/12:30pm 16.7 11.2 10.5 67 3.3 WSW 30 44 16 24 1009.0 - 0.0
18/12:00pm 18.2 11.4 9.3 56 4.7 W 35 44 19 24 1009.1 - 0.0
18/11:30am 18.0 11.2 9.1 56 4.6 W 35 46 19 25 1009.4 1009.4 0.0
18/11:00am 18.0 11.0 9.9 59 4.3 W 37 44 20 24 1009.9 - 0.0
18/10:30am 17.9 11.3 10.0 60 4.2 W 35 44 19 24 1010.4 - 0.0
18/10:00am 18.1 11.2 8.9 55 4.8 W 35 44 19 24 1010.7 - 0.0
18/09:30am 17.5 14.0 10.9 65 3.6 WSW 20 30 11 16 1010.8 - 0.0
18/09:00am 16.6 12.7 10.9 69 3.1 WSW 22 32 12 17 1011.2 - 0.0
18/08:30am 15.8 8.7 9.7 67 3.2 WSW 37 54 20 29 1011.1 1011.1 9.2
18/08:23am 16.9 10.8 10.3 65 3.5 W 33 54 18 29 1011.0 - 9.2
18/08:00am 15.3 11.8 10.9 75 2.3 WSW 20 26 11 14 1011.1 - 9.0
18/07:30am 12.6 7.6 7.9 73 2.3 W 24 61 13 33 1012.2 - 8.6
18/07:23am 14.2 9.5 7.9 66 3.1 WNW 22 39 12 21 1011.8 - 5.6
18/07:00am 16.8 10.3 9.0 60 4.0 WSW 33 46 18 25 1011.3 - 5.6
18/06:30am 16.2 11.0 10.1 67 3.2 W 28 39 15 21 1011.3 - 5.6
18/06:00am 15.9 9.7 10.0 68 3.1 WSW 33 43 18 23 1011.3 - 5.6
18/05:30am 15.8 9.2 10.1 69 3.0 W 35 44 19 24 1011.2 1011.2 5.6
18/05:00am 16.4 10.6 10.7 69 3.0 WSW 32 43 17 23 1011.1 - 5.6
18/04:30am 16.6 8.5 8.8 60 4.0 W 41 50 22 27 1011.0 - 5.6
18/04:00am 16.6 9.6 9.8 64 3.6 W 37 48 20 26 1011.0 - 5.6
18/03:40am 16.4 11.3 10.7 69 3.0 W 28 48 15 26 1011.1 - 5.6
18/03:30am 16.2 10.5 9.8 66 3.3 W 30 39 16 21 1011.3 - 5.6
18/03:13am 15.8 9.6 9.9 68 3.1 WSW 33 52 18 28 1011.6 - 5.6
18/03:00am 16.8 9.9 9.0 60 4.0 WSW 35 46 19 25 1011.3 - 5.6
18/02:30am 16.7 8.8 7.9 56 4.4 WSW 39 50 21 27 1011.5 1011.5 5.6
18/02:00am 16.7 8.9 9.9 64 3.6 WSW 41 50 22 27 1011.7 - 5.6
18/01:30am 16.6 7.9 8.6 59 4.1 WSW 44 56 24 30 1011.7 - 5.6
18/01:00am 15.3 7.5 9.9 70 2.8 W 41 61 22 33 1011.9 - 5.6
18/12:57am 16.2 9.2 10.1 67 3.2 W 37 61 20 33 1011.9 - 5.6
18/12:30am 16.3 8.3 9.0 62 3.8 WSW 41 50 22 27 1012.0 - 5.6
18/12:00am 16.2 7.7 9.2 63 3.6 WSW 44 57 24 31 1011.8 - 5.6
 
Date/Time
EST
Temp
°C
App
Temp
°C
Dew
Point
°C
Rel
Hum
%
Delta-T
°C
Wind Press
QNH
hPa
Press
MSL
hPa
Rain since
9am
mm
Dir  Spd
km/h
Gust
km/h
Spd
kts
Gust
kts
17/11:30pm 16.3 7.7 8.3 59 4.1 WSW 43 56 23 30 1011.8 1011.8 5.6
17/11:00pm 14.6 9.4 10.2 75 2.3 W 28 43 15 23 1012.2 - 5.6
17/10:35pm 14.5 8.3 9.9 74 2.4 WSW 33 52 18 28 1012.3 - 5.6
17/10:30pm 15.6 8.1 9.3 66 3.2 WSW 39 52 21 28 1012.3 - 5.0
17/10:00pm 15.5 6.9 8.7 64 3.5 WSW 44 61 24 33 1012.5 - 5.0
17/09:44pm 14.7 4.4 9.5 71 2.7 WSW 54 72 29 39 1012.6 - 5.0
17/09:39pm 15.1 3.5 9.7 70 2.8 WSW 61 72 33 39 1012.5 - 5.0
17/09:35pm 15.9 7.7 8.4 61 3.8 WSW 41 63 22 34 1012.3 - 5.0
17/09:30pm 16.0 8.6 8.5 61 3.8 WSW 37 46 20 25 1012.4 - 5.0
17/09:12pm 15.7 9.2 8.9 64 3.5 WSW 33 52 18 28 1012.5 - 5.0
17/09:00pm 15.7 9.1 8.4 62 3.7 WSW 33 46 18 25 1012.5 - 5.0
17/08:30pm 15.9 5.3 8.4 61 3.8 WSW 54 74 29 40 1011.9 1011.9 5.0
17/08:22pm 16.4 6.8 9.6 64 3.5 W 50 74 27 40 1011.6 - 5.0
17/08:00pm 16.9 8.0 7.8 55 4.6 W 44 57 24 31 1011.6 - 5.0
17/07:30pm 16.7 8.2 8.4 58 4.2 WSW 43 56 23 30 1011.5 - 5.0
17/07:00pm 16.5 7.5 7.2 54 4.6 WSW 44 56 24 30 1011.2 - 5.0
17/06:56pm 16.5 7.0 8.2 58 4.2 WSW 48 67 26 36 1011.0 - 5.0
17/06:30pm 16.7 6.8 8.1 57 4.4 W 50 63 27 34 1010.8 - 5.0
17/06:04pm 16.5 8.2 9.4 63 3.7 WSW 43 61 23 33 1010.7 - 5.0
17/06:00pm 16.2 7.5 9.8 66 3.3 WSW 46 61 25 33 1010.8 - 5.0
17/05:37pm 15.9 8.8 10.9 72 2.7 WSW 39 57 21 31 1010.7 - 5.0
17/05:30pm 15.7 9.1 11.5 76 2.3 WSW 37 54 20 29 1010.7 1010.7 5.0
17/05:13pm 15.6 7.2 11.2 75 2.4 WSW 46 65 25 35 1010.5 - 5.0
17/05:00pm 16.7 7.5 10.8 68 3.2 WSW 50 61 27 33 1010.0 - 5.0
17/04:30pm 17.2 9.3 10.8 66 3.4 WSW 43 56 23 30 1009.6 - 5.0
17/04:00pm 17.6 9.2 10.9 65 3.6 W 46 59 25 32 1009.4 - 5.0
17/03:30pm 17.3 9.9 12.4 73 2.7 WSW 43 56 23 30 1009.2 - 5.0
17/03:00pm 17.5 9.1 12.2 71 2.9 WSW 48 61 26 33 1009.0 - 5.0
17/02:36pm 17.1 10.0 13.4 79 2.1 WSW 43 54 23 29 1009.0 - 5.0
17/02:30pm 16.7 10.7 13.4 81 1.9 W 37 52 20 28 1009.1 1009.1 5.0
17/02:29pm 16.7 10.8 13.6 82 1.7 W 37 50 20 27 1009.0 - 5.0
17/02:13pm 15.5 12.4 11.5 77 2.2 NW 19 35 10 19 1009.4 - 2.0
17/02:00pm 16.3 12.6 11.5 73 2.6 WNW 22 48 12 26 1009.3 - 0.0
17/01:52pm 17.2 12.5 12.1 72 2.8 WNW 28 56 15 30 1009.6 - 0.0
17/01:30pm 19.1 15.1 11.9 63 4.0 WNW 24 35 13 19 1009.3 - 0.0
17/01:00pm 19.0 14.0 11.1 60 4.3 W 28 44 15 24 1009.7 - 0.0
17/12:30pm 19.1 15.1 10.6 58 4.6 WNW 22 32 12 17 1010.0 - 0.0
17/12:00pm 18.6 14.8 9.9 57 4.6 WNW 20 30 11 16 1010.7 - 0.0
17/11:30am 19.7 15.5 12.5 63 4.0 W 26 43 14 23 1011.3 1011.3 0.0
17/11:00am 18.6 15.0 10.4 59 4.4 W 20 33 11 18 1012.0 - 0.0
17/10:30am 19.4 14.4 10.9 58 4.6 W 28 37 15 20 1012.5 - 0.0
17/10:00am 19.6 16.6 12.6 64 3.9 W 20 28 11 15 1012.8 - 0.0
17/09:30am 19.4 16.5 12.2 63 4.0 W 19 28 10 15 1013.2 - 0.0
17/09:00am 18.4 15.9 12.2 67 3.4 W 17 24 9 13 1013.4 - 0.0
17/08:30am 17.2 15.3 12.9 76 2.4 W 15 19 8 10 1013.7 1013.7 1.0
17/08:00am 15.5 13.8 12.3 81 1.7 SW 13 20 7 11 1013.7 - 1.0
17/07:30am 15.8 10.7 11.8 77 2.2 W 30 46 16 25 1013.8 - 1.0
17/07:00am 15.0 15.3 11.0 77 2.1 CALM 0 0 0 0 1013.4 - 1.0
17/06:30am 14.4 14.3 9.6 73 2.5 CALM 0 6 0 3 1013.4 - 1.0
17/06:00am 16.5 14.1 9.9 65 3.5 WSW 13 19 7 10 1013.4 - 1.0
17/05:30am 15.3 15.1 11.9 80 1.8 WSW 4 19 2 10 1013.4 1013.4 1.0
17/05:00am 16.0 14.2 12.2 78 2.1 W 13 19 7 10 1013.2 - 1.0
17/04:30am 15.7 13.1 12.1 79 2.0 W 17 19 9 10 1013.3 - 1.0
17/04:00am 15.8 12.4 12.4 80 1.9 W 22 30 12 16 1013.7 - 1.0
17/03:30am 15.9 12.1 11.1 73 2.6 SW 22 32 12 17 1013.9 - 0.6
17/03:06am 15.8 9.9 10.6 71 2.8 SW 32 50 17 27 1014.1 - 0.6
17/03:00am 16.1 9.7 12.1 77 2.2 SW 37 50 20 27 1014.1 - 0.6
17/02:56am 15.6 7.5 12.0 79 2.0 W 46 69 25 37 1014.1 - 0.6
17/02:43am 17.2 12.2 12.3 73 2.7 W 30 48 16 26 1013.7 - 0.6
17/02:30am 17.8 14.9 14.1 79 2.1 WSW 22 32 12 17 1013.4 1013.4 0.6
17/02:00am 17.3 14.1 14.2 82 1.8 SW 24 35 13 19 1013.6 - 0.6
17/01:39am 17.5 13.2 13.2 76 2.4 WSW 28 39 15 21 1013.6 - 0.6
17/01:32am 18.0 10.5 12.0 68 3.3 W 43 69 23 37 1013.5 - 0.2
17/01:30am 19.2 12.3 12.7 66 3.6 W 41 54 22 29 1013.5 - 0.2
17/01:02am 18.9 13.8 13.1 69 3.3 W 32 52 17 28 1013.8 - 0.2
17/01:00am 18.8 13.8 13.4 71 3.1 W 32 43 17 23 1013.9 - 0.2
17/12:49am 18.2 11.6 12.6 70 3.1 W 39 46 21 25 1013.9 - 0.2
17/12:35am 19.4 14.9 12.7 65 3.8 WNW 28 46 15 25 1013.9 - 0.2
17/12:30am 19.5 15.0 11.5 60 4.4 WNW 26 39 14 21 1013.9 - 0.2
17/12:00am 19.2 15.9 11.0 59 4.5 WNW 19 35 10 19 1014.4 - 0.2
 
Date/Time
EST
Temp
°C
App
Temp
°C
Dew
Point
°C
Rel
Hum
%
Delta-T
°C
Wind Press
QNH
hPa
Press
MSL
hPa
Rain since
9am
mm
Dir  Spd
km/h
Gust
km/h
Spd
kts
Gust
kts
16/11:30pm 19.0 16.9 11.1 60 4.3 WNW 13 24 7 13 1014.6 1014.6 0.2
16/11:00pm 18.5 16.9 11.6 64 3.8 NW 11 20 6 11 1014.9 - 0.2
16/10:30pm 18.1 17.0 11.9 67 3.4 N 9 20 5 11 1015.1 - 0.2
16/10:00pm 17.8 17.0 11.6 67 3.4 N 7 11 4 6 1015.4 - 0.2
16/09:30pm 17.2 16.5 11.5 69 3.1 N 6 9 3 5 1015.6 - 0.2
16/09:00pm 16.7 16.4 11.4 71 2.9 NW 4 11 2 6 1015.9 - 0.2
16/08:30pm 15.0 14.3 10.2 73 2.5 N 4 7 2 4 1015.9 1015.9 0.2
16/08:00pm 15.4 14.9 10.8 74 2.4 NNW 4 9 2 5 1016.1 - 0.2

Other Formats:

Comma delimited format used in spreadsheet applications
http://www.bom.gov.au/fwo/IDN60801/IDN60801.94995.axf

JavaScript Object Notation format (JSON) in row-major order
http://www.bom.gov.au/fwo/IDN60801/IDN60801.94995.json